Time;durP1;ratioP1;P1;durP2;ratioP2;P2;SDS_P1;SDS_P2;PMS_P1;PMS_P2;Temp;Humidity;BMP_temperature;BMP_pressure;BME280_temperature;BME280_humidity;BME280_pressure;Samples;Min_cycle;Max_cycle;Signal;HPM_P1;HPM_P2
2023/01/06 00:02:22;;;;;;;3.60;2.33;;;13.50;99.90;;;;;;5016449;28;20936;-73
2023/01/06 00:04:47;;;;;;;5.10;2.30;;;13.50;99.90;;;;;;5017919;28;20207;-71
2023/01/06 00:07:13;;;;;;;3.27;2.20;;;13.50;99.90;;;;;;5014959;28;20465;-71
2023/01/06 00:09:38;;;;;;;3.53;2.10;;;13.50;99.90;;;;;;5019778;28;20665;-72
2023/01/06 00:12:05;;;;;;;6.37;2.33;;;13.50;99.90;;;;;;5021087;28;20184;-73
2023/01/06 00:14:31;;;;;;;3.30;2.47;;;13.50;99.90;;;;;;5016860;28;20231;-72
2023/01/06 00:16:57;;;;;;;3.03;2.10;;;13.50;99.90;;;;;;5015336;28;21153;-73
2023/01/06 00:19:22;;;;;;;5.53;2.33;;;13.50;99.90;;;;;;5011784;28;20172;-72
2023/01/06 00:21:48;;;;;;;2.87;1.97;;;13.40;99.90;;;;;;5015627;28;20258;-72
2023/01/06 00:24:13;;;;;;;3.67;2.40;;;13.50;99.90;;;;;;5011102;28;20540;-72
2023/01/06 00:26:39;;;;;;;6.37;2.60;;;13.50;99.90;;;;;;5018845;28;20660;-72
2023/01/06 00:29:04;;;;;;;6.93;2.50;;;13.50;99.90;;;;;;5016136;28;20272;-71
2023/01/06 00:31:30;;;;;;;3.80;2.60;;;13.40;99.90;;;;;;5018074;28;20189;-71
2023/01/06 00:33:56;;;;;;;3.10;2.10;;;13.50;99.90;;;;;;5012123;28;20188;-70
2023/01/06 00:36:23;;;;;;;3.73;2.43;;;13.50;99.90;;;;;;5025913;28;20279;-71
2023/01/06 00:38:50;;;;;;;3.67;2.40;;;13.50;99.90;;;;;;5019942;28;20439;-72
2023/01/06 00:44:01;;;;;;;5.23;3.40;;;13.50;99.90;;;;;;5015561;28;20492;-72
2023/01/06 00:46:28;;;;;;;6.77;2.90;;;13.40;99.90;;;;;;5017128;28;20466;-71
2023/01/06 00:48:54;;;;;;;3.23;2.23;;;13.40;99.90;;;;;;5022824;28;20454;-71
2023/01/06 00:51:20;;;;;;;3.57;2.80;;;13.40;99.90;;;;;;5015923;28;20440;-72
2023/01/06 00:53:46;;;;;;;3.73;2.60;;;13.40;99.90;;;;;;5011453;28;20498;-72
2023/01/06 00:56:11;;;;;;;3.30;2.20;;;13.40;99.90;;;;;;5015785;28;20215;-73
2023/01/06 00:58:37;;;;;;;2.53;2.10;;;13.30;99.90;;;;;;5020889;28;20192;-73
2023/01/06 01:01:07;;;;;;;4.17;3.00;;;13.40;99.90;;;;;;5016043;28;20488;-72
2023/01/06 01:03:34;;;;;;;2.97;2.40;;;13.30;99.90;;;;;;5024831;28;20238;-72
2023/01/06 01:06:01;;;;;;;3.20;2.17;;;13.40;99.90;;;;;;5017137;28;20478;-73
2023/01/06 01:08:27;;;;;;;8.17;2.30;;;13.40;99.90;;;;;;5017722;28;20960;-72
2023/01/06 01:10:53;;;;;;;3.77;2.47;;;13.40;99.90;;;;;;5013407;28;20431;-71
2023/01/06 01:13:19;;;;;;;2.90;2.20;;;13.40;99.90;;;;;;5018755;28;20185;-71
2023/01/06 01:15:44;;;;;;;4.97;2.43;;;13.40;99.90;;;;;;5017398;28;20458;-71
2023/01/06 01:18:10;;;;;;;4.80;2.50;;;13.40;99.90;;;;;;5015812;28;20627;-71
2023/01/06 01:20:36;;;;;;;3.50;2.40;;;13.40;99.90;;;;;;5018413;28;20284;-72
2023/01/06 01:23:01;;;;;;;3.47;2.23;;;13.40;99.90;;;;;;5017807;28;20684;-72
2023/01/06 01:25:27;;;;;;;4.43;2.40;;;13.40;99.90;;;;;;5015864;28;20292;-72
2023/01/06 01:27:52;;;;;;;4.20;2.20;;;13.40;99.90;;;;;;5018249;28;20666;-72
2023/01/06 01:30:21;;;;;;;3.77;2.20;;;13.40;99.90;;;;;;5020937;28;20212;-72
2023/01/06 01:32:46;;;;;;;3.90;2.63;;;13.40;99.90;;;;;;5019817;28;20189;-71
2023/01/06 01:35:12;;;;;;;4.03;2.33;;;13.40;99.90;;;;;;5014937;28;21130;-71
2023/01/06 01:37:38;;;;;;;3.37;2.10;;;13.40;99.90;;;;;;5016597;28;20716;-71
2023/01/06 01:40:04;;;;;;;6.13;2.50;;;13.30;99.90;;;;;;5014474;28;20456;-71
2023/01/06 01:42:30;;;;;;;2.97;2.30;;;13.40;99.90;;;;;;5016863;28;20650;-70
2023/01/06 01:44:58;;;;;;;3.80;2.10;;;13.40;99.90;;;;;;5017353;28;20524;-71
2023/01/06 01:47:28;;;;;;;3.53;2.10;;;13.40;99.90;;;;;;5015728;28;20251;-71
2023/01/06 01:49:57;;;;;;;3.07;2.27;;;13.40;99.90;;;;;;5016657;28;20830;-71
2023/01/06 01:52:24;;;;;;;4.30;2.20;;;13.30;99.90;;;;;;5014495;28;21212;-72
2023/01/06 01:54:52;;;;;;;2.80;2.00;;;13.30;99.90;;;;;;5014556;28;20451;-72
2023/01/06 01:57:32;;;;;;;2.80;2.30;;;13.40;99.90;;;;;;5011906;28;20463;-72
2023/01/06 01:59:59;;;;;;;2.50;1.90;;;13.40;99.90;;;;;;5012940;28;20550;-71
2023/01/06 02:02:27;;;;;;;2.70;2.20;;;13.40;99.90;;;;;;5014128;28;20453;-72
2023/01/06 02:04:53;;;;;;;2.87;1.97;;;13.30;99.90;;;;;;5013767;28;20481;-71
2023/01/06 02:07:23;;;;;;;5.00;2.10;;;13.40;99.90;;;;;;5013310;28;20925;-71
2023/01/06 02:10:14;;;;;;;2.97;2.07;;;13.40;99.90;;;;;;5016659;28;20860;-72
2023/01/06 02:12:41;;;;;;;2.80;2.07;;;13.40;99.90;;;;;;5016413;28;20445;-71
2023/01/06 02:15:18;;;;;;;4.40;2.10;;;13.40;99.90;;;;;;5007884;28;20439;-72
2023/01/06 02:18:13;;;;;;;3.00;1.80;;;13.40;99.90;;;;;;5014691;28;20454;-71
2023/01/06 02:20:51;;;;;;;2.50;2.27;;;13.40;99.90;;;;;;5008746;28;20435;-72
2023/01/06 02:23:22;;;;;;;3.30;2.23;;;13.30;99.90;;;;;;5012569;28;20438;-71
2023/01/06 02:26:21;;;;;;;2.70;1.80;;;13.40;99.90;;;;;;5011197;28;20479;-71
2023/01/06 02:29:09;;;;;;;2.37;1.90;;;13.40;99.90;;;;;;5013782;28;20968;-71
2023/01/06 02:31:47;;;;;;;4.70;2.07;;;13.40;99.90;;;;;;5012794;28;20799;-70
2023/01/06 02:34:38;;;;;;;2.60;2.03;;;13.40;99.90;;;;;;5014633;28;20548;-70
2023/01/06 02:37:10;;;;;;;3.90;2.73;;;13.30;99.90;;;;;;5008996;28;20489;-70
2023/01/06 02:39:46;;;;;;;3.07;2.00;;;13.40;99.90;;;;;;5019316;28;20439;-70
2023/01/06 02:42:29;;;;;;;3.60;2.23;;;13.30;99.90;;;;;;5012085;28;20443;-71
2023/01/06 02:45:19;;;;;;;7.20;2.70;;;13.30;99.90;;;;;;5015016;28;20475;-71
2023/01/06 02:47:59;;;;;;;3.80;2.60;;;13.20;99.90;;;;;;5019141;28;20509;-71
2023/01/06 02:51:10;;;;;;;3.67;2.67;;;13.20;99.90;;;;;;5010685;28;20451;-71
2023/01/06 02:54:01;;;;;;;6.00;2.60;;;13.10;99.90;;;;;;4991338;28;20439;-71
2023/01/06 02:56:31;;;;;;;4.50;2.60;;;13.00;99.90;;;;;;5010510;28;20492;-71
2023/01/06 02:59:19;;;;;;;4.43;2.80;;;13.00;99.90;;;;;;5014261;28;20435;-70
2023/01/06 03:01:48;;;;;;;3.30;2.60;;;13.00;99.90;;;;;;5018877;28;20484;-71
2023/01/06 03:04:19;;;;;;;5.20;2.90;;;12.90;99.90;;;;;;5015575;28;20690;-71
2023/01/06 03:06:49;;;;;;;4.43;2.60;;;12.80;99.90;;;;;;5015634;28;20479;-72
2023/01/06 03:09:17;;;;;;;4.40;2.73;;;12.90;99.90;;;;;;5008496;28;20453;-71
2023/01/06 03:11:47;;;;;;;3.50;2.80;;;12.90;99.90;;;;;;5013706;28;20498;-71
2023/01/06 03:14:16;;;;;;;4.47;2.87;;;12.90;99.90;;;;;;5014784;28;20437;-70
2023/01/06 03:16:42;;;;;;;3.67;2.30;;;12.90;99.90;;;;;;5012192;28;20466;-71
2023/01/06 03:19:07;;;;;;;2.90;2.50;;;12.90;99.90;;;;;;5012972;28;20457;-71
2023/01/06 03:21:38;;;;;;;4.70;2.87;;;12.90;99.90;;;;;;5015430;28;20184;-71
2023/01/06 03:24:06;;;;;;;2.90;2.40;;;13.00;99.90;;;;;;5015851;28;20263;-71
2023/01/06 03:26:32;;;;;;;4.63;2.70;;;13.00;99.90;;;;;;5011250;28;20510;-70
2023/01/06 03:28:59;;;;;;;3.70;3.10;;;13.00;99.90;;;;;;5014637;28;20514;-70
2023/01/06 03:31:48;;;;;;;4.03;3.10;;;13.00;99.90;;;;;;5012937;28;20506;-70
2023/01/06 03:34:33;;;;;;;3.60;2.30;;;13.00;99.90;;;;;;5014480;28;20519;-71
2023/01/06 03:37:24;;;;;;;4.00;2.67;;;12.90;99.90;;;;;;5014358;28;21008;-71
2023/01/06 03:39:59;;;;;;;3.63;2.00;;;12.90;99.90;;;;;;5009378;28;20449;-71
2023/01/06 03:46:04;;;;;;;3.40;2.20;;;12.80;99.90;;;;;;5011014;28;20563;-70
2023/01/06 03:48:43;;;;;;;3.40;2.30;;;12.80;99.90;;;;;;5014042;28;20542;-70
2023/01/06 03:51:31;;;;;;;2.70;2.27;;;12.80;99.90;;;;;;5011031;28;20503;-70
2023/01/06 03:54:13;;;;;;;3.57;2.60;;;12.80;99.90;;;;;;5006501;28;21017;-70
2023/01/06 03:56:44;;;;;;;3.00;2.50;;;12.80;99.90;;;;;;5010786;28;20459;-70
2023/01/06 03:59:18;;;;;;;3.43;2.47;;;12.80;99.90;;;;;;5015324;28;20603;-71
2023/01/06 04:01:44;;;;;;;4.87;2.47;;;12.80;99.90;;;;;;5019808;28;20438;-70
2023/01/06 04:04:10;;;;;;;2.90;2.00;;;12.80;99.90;;;;;;5012791;28;20458;-71
2023/01/06 04:06:36;;;;;;;3.57;2.73;;;12.80;99.90;;;;;;5010940;28;20216;-71
2023/01/06 04:09:02;;;;;;;3.57;2.73;;;12.80;99.90;;;;;;5011631;28;20798;-71
2023/01/06 04:14:11;;;;;;;3.70;3.03;;;12.70;99.90;;;;;;5011728;28;20187;-71
2023/01/06 04:16:37;;;;;;;3.30;2.53;;;12.80;99.90;;;;;;5015600;28;20462;-71
2023/01/06 04:19:03;;;;;;;3.93;3.13;;;12.80;99.90;;;;;;5014384;28;20195;-71
2023/01/06 04:21:28;;;;;;;3.67;2.83;;;12.70;99.90;;;;;;5014749;28;20188;-72
2023/01/06 04:23:54;;;;;;;3.80;3.23;;;12.70;99.90;;;;;;5017622;28;20928;-71
2023/01/06 04:26:20;;;;;;;4.93;2.90;;;12.60;99.90;;;;;;5019029;28;20690;-72
2023/01/06 04:28:45;;;;;;;3.90;3.17;;;12.60;99.90;;;;;;5016721;28;20280;-71
2023/01/06 04:31:11;;;;;;;4.23;3.30;;;12.70;99.90;;;;;;5018111;28;20180;-71
2023/01/06 04:33:37;;;;;;;5.83;3.80;;;12.70;99.90;;;;;;5017466;28;20181;-71
2023/01/06 04:36:02;;;;;;;4.13;3.27;;;12.60;99.90;;;;;;5017349;28;20200;-71
2023/01/06 04:38:28;;;;;;;5.40;4.07;;;12.60;99.90;;;;;;5015969;28;20788;-71
2023/01/06 04:40:54;;;;;;;6.37;4.00;;;12.60;99.90;;;;;;5017020;28;20439;-71
2023/01/06 04:43:20;;;;;;;6.13;3.63;;;12.50;99.90;;;;;;5019621;28;20254;-71
2023/01/06 04:45:46;;;;;;;6.50;4.40;;;12.40;99.90;;;;;;5018702;28;20207;-71
2023/01/06 04:48:13;;;;;;;6.13;4.30;;;12.40;99.90;;;;;;5015180;28;20177;-71
2023/01/06 04:50:38;;;;;;;4.83;4.33;;;12.40;99.90;;;;;;5015922;28;20438;-71
2023/01/06 04:53:05;;;;;;;5.37;4.17;;;12.50;99.90;;;;;;5012528;28;20439;-71
2023/01/06 04:55:30;;;;;;;5.70;4.40;;;12.50;99.90;;;;;;5016093;28;20180;-71
2023/01/06 04:57:56;;;;;;;5.90;4.30;;;12.50;99.90;;;;;;5016150;28;20879;-71
2023/01/06 05:00:23;;;;;;;4.70;4.13;;;12.50;99.90;;;;;;5021130;28;20216;-72
2023/01/06 05:02:49;;;;;;;5.80;4.90;;;12.50;99.90;;;;;;5017988;28;20489;-72
2023/01/06 05:05:15;;;;;;;4.43;4.03;;;12.40;99.90;;;;;;5016052;28;20482;-72
2023/01/06 05:07:41;;;;;;;4.53;3.87;;;12.50;99.90;;;;;;5016411;28;20188;-70
2023/01/06 05:10:08;;;;;;;4.73;4.13;;;12.60;99.90;;;;;;5015481;28;20439;-72
2023/01/06 05:12:34;;;;;;;6.80;3.43;;;12.60;99.90;;;;;;5018151;28;20172;-72
2023/01/06 05:14:59;;;;;;;5.23;4.03;;;12.50;99.90;;;;;;5014007;28;20607;-71
2023/01/06 05:17:26;;;;;;;4.30;3.23;;;12.40;99.90;;;;;;5015574;28;20213;-70
2023/01/06 05:19:52;;;;;;;9.90;4.00;;;12.50;99.90;;;;;;5013536;28;20207;-72
2023/01/06 05:22:17;;;;;;;7.50;3.97;;;12.50;99.90;;;;;;5021103;28;20451;-71
2023/01/06 05:24:43;;;;;;;4.30;3.90;;;12.50;99.90;;;;;;5014364;28;20549;-71
2023/01/06 05:27:09;;;;;;;4.40;3.57;;;12.40;99.90;;;;;;5018253;28;20197;-71
2023/01/06 05:29:35;;;;;;;5.10;4.60;;;12.50;99.90;;;;;;5012299;28;20446;-70
2023/01/06 05:32:01;;;;;;;4.77;3.77;;;12.40;99.90;;;;;;5016228;28;20493;-71
2023/01/06 05:34:27;;;;;;;4.37;3.50;;;12.30;99.90;;;;;;5016303;28;20447;-70
2023/01/06 05:36:53;;;;;;;4.70;3.93;;;12.40;99.90;;;;;;5014497;28;20216;-70
2023/01/06 05:39:18;;;;;;;5.00;3.90;;;12.40;99.90;;;;;;5015012;28;20192;-71
2023/01/06 05:41:44;;;;;;;6.03;4.30;;;12.40;99.90;;;;;;5011342;28;20967;-72
2023/01/06 05:44:09;;;;;;;4.70;3.83;;;12.40;99.90;;;;;;5014528;28;20191;-72
2023/01/06 05:46:35;;;;;;;5.53;3.50;;;12.40;99.90;;;;;;5014736;28;20228;-70
2023/01/06 05:49:01;;;;;;;7.10;3.80;;;12.40;99.90;;;;;;5017192;28;20245;-72
2023/01/06 05:51:27;;;;;;;5.37;4.80;;;12.50;99.90;;;;;;5016606;28;20271;-71
2023/01/06 05:53:52;;;;;;;5.47;3.83;;;12.50;99.90;;;;;;5016284;28;20181;-71
2023/01/06 05:56:21;;;;;;;5.43;4.10;;;12.50;99.90;;;;;;5015281;28;21418;-71
2023/01/06 05:58:51;;;;;;;4.70;3.67;;;12.40;99.90;;;;;;5013236;28;20193;-71
2023/01/06 06:01:23;;;;;;;5.97;4.40;;;12.50;99.90;;;;;;5009803;28;21404;-72
2023/01/06 06:03:49;;;;;;;4.67;4.13;;;12.50;99.90;;;;;;5015606;28;20459;-72
2023/01/06 06:06:16;;;;;;;5.93;4.53;;;12.40;99.90;;;;;;5014629;28;20885;-72
2023/01/06 06:08:41;;;;;;;5.70;4.70;;;12.50;99.90;;;;;;5011993;28;20462;-72
2023/01/06 06:11:11;;;;;;;4.80;4.30;;;12.40;99.90;;;;;;5017165;28;20497;-73
2023/01/06 06:13:37;;;;;;;6.37;4.47;;;12.40;99.90;;;;;;5016570;28;20547;-72
2023/01/06 06:16:08;;;;;;;4.90;4.23;;;12.40;99.90;;;;;;5015228;28;20471;-72
2023/01/06 06:18:41;;;;;;;7.20;4.43;;;12.50;99.90;;;;;;5023960;28;20448;-73
2023/01/06 06:21:07;;;;;;;5.63;4.83;;;12.50;99.90;;;;;;5016361;28;20427;-71
2023/01/06 06:23:33;;;;;;;5.30;4.20;;;12.40;99.90;;;;;;5014439;28;20446;-73
2023/01/06 06:25:58;;;;;;;5.27;4.40;;;12.30;99.90;;;;;;5017112;28;20897;-72
2023/01/06 06:28:24;;;;;;;6.17;4.83;;;12.40;99.90;;;;;;5011812;28;20189;-72
2023/01/06 06:30:50;;;;;;;4.80;3.77;;;12.40;99.90;;;;;;5009879;28;20192;-72
2023/01/06 06:33:15;;;;;;;5.93;4.30;;;12.40;99.90;;;;;;5013501;28;20189;-72
2023/01/06 06:35:41;;;;;;;5.93;4.17;;;12.50;99.90;;;;;;5014203;28;20924;-71
2023/01/06 06:38:06;;;;;;;4.93;4.43;;;12.50;99.90;;;;;;5014307;28;20200;-71
2023/01/06 06:40:32;;;;;;;5.10;3.90;;;12.30;99.90;;;;;;5011164;28;20201;-71
2023/01/06 06:42:58;;;;;;;6.17;4.70;;;12.30;99.90;;;;;;5010929;28;20288;-72
2023/01/06 06:45:23;;;;;;;5.60;4.50;;;12.30;99.90;;;;;;5011362;28;20314;-71
2023/01/06 06:47:53;;;;;;;5.13;4.60;;;12.30;99.90;;;;;;5010775;28;21225;-72
2023/01/06 06:50:18;;;;;;;5.30;4.70;;;12.30;99.90;;;;;;5011848;28;20195;-71
2023/01/06 06:52:44;;;;;;;6.10;4.43;;;12.30;99.90;;;;;;5010000;28;20455;-71
2023/01/06 06:55:09;;;;;;;5.07;4.30;;;12.30;99.90;;;;;;5014280;28;21019;-71
2023/01/06 06:57:35;;;;;;;4.30;3.60;;;12.30;99.90;;;;;;5008768;28;20213;-71
2023/01/06 07:00:01;;;;;;;4.37;3.97;;;12.30;99.90;;;;;;5017947;28;20234;-71
2023/01/06 07:02:26;;;;;;;5.73;4.50;;;12.30;99.90;;;;;;5009698;28;20460;-72
2023/01/06 07:04:52;;;;;;;4.73;4.00;;;12.30;99.90;;;;;;5012072;28;20279;-71
2023/01/06 07:07:17;;;;;;;4.50;3.57;;;12.30;99.90;;;;;;5009743;28;20208;-71
2023/01/06 07:09:43;;;;;;;6.53;4.47;;;12.30;99.90;;;;;;5011215;28;20250;-71
2023/01/06 07:12:08;;;;;;;6.80;4.53;;;12.30;99.90;;;;;;5009548;28;20188;-71
2023/01/06 07:14:34;;;;;;;4.93;4.43;;;12.30;99.90;;;;;;5011629;28;20236;-72
2023/01/06 07:17:01;;;;;;;4.67;4.00;;;12.30;99.90;;;;;;5014669;28;20295;-72
2023/01/06 07:19:27;;;;;;;5.23;4.07;;;12.30;99.90;;;;;;5015378;28;20219;-72
2023/01/06 07:21:52;;;;;;;3.80;3.23;;;12.40;99.90;;;;;;5011626;28;20445;-71
2023/01/06 07:24:18;;;;;;;5.50;3.73;;;12.30;99.90;;;;;;5003516;28;20439;-71
2023/01/06 07:26:43;;;;;;;6.63;3.90;;;12.30;99.90;;;;;;5012163;28;20240;-72
2023/01/06 07:29:09;;;;;;;5.27;3.97;;;12.30;99.90;;;;;;4997335;28;20556;-72
2023/01/06 07:31:34;;;;;;;5.13;3.93;;;12.30;99.90;;;;;;4990171;28;20235;-68
2023/01/06 07:34:00;;;;;;;4.23;3.70;;;12.30;99.90;;;;;;5003201;28;22066;-69
2023/01/06 07:36:25;;;;;;;5.57;4.73;;;12.20;99.90;;;;;;5013577;28;20790;-68
2023/01/06 07:38:51;;;;;;;6.40;4.00;;;12.30;99.90;;;;;;4996226;28;20665;-68
2023/01/06 07:41:16;;;;;;;4.07;3.40;;;12.20;99.90;;;;;;5012076;28;20468;-69
2023/01/06 07:43:42;;;;;;;5.03;3.60;;;12.20;99.90;;;;;;5008822;28;20192;-69
2023/01/06 07:46:08;;;;;;;6.10;3.90;;;12.30;99.90;;;;;;5008584;28;20663;-69
2023/01/06 07:48:34;;;;;;;8.00;4.03;;;12.20;99.90;;;;;;5009159;28;20184;-69
2023/01/06 07:50:59;;;;;;;4.37;3.87;;;12.20;99.90;;;;;;4998555;28;20687;-69
2023/01/06 07:53:25;;;;;;;5.37;3.97;;;12.10;99.90;;;;;;5013548;28;20502;-69
2023/01/06 07:55:52;;;;;;;6.70;4.33;;;12.10;99.90;;;;;;5000326;28;20205;-69
2023/01/06 07:58:18;;;;;;;6.67;3.20;;;12.10;99.90;;;;;;5009605;28;20180;-70
2023/01/06 08:00:43;;;;;;;3.93;3.30;;;12.20;99.90;;;;;;5010907;28;20826;-69
2023/01/06 08:03:12;;;;;;;7.63;4.37;;;12.10;99.90;;;;;;5009928;28;20185;-68
2023/01/06 08:05:42;;;;;;;4.03;3.50;;;12.10;99.90;;;;;;5015783;28;20216;-68
2023/01/06 08:08:09;;;;;;;5.03;3.50;;;12.20;99.90;;;;;;5008782;28;20489;-70
2023/01/06 08:10:38;;;;;;;3.53;3.23;;;12.20;99.90;;;;;;5015042;28;20437;-72
2023/01/06 08:13:04;;;;;;;4.53;3.40;;;12.20;99.90;;;;;;5012453;28;20438;-71
2023/01/06 08:15:29;;;;;;;4.47;3.47;;;12.20;99.90;;;;;;5011681;28;20439;-71
2023/01/06 08:17:55;;;;;;;4.50;3.23;;;12.20;99.90;;;;;;5019270;28;20192;-70
2023/01/06 08:20:21;;;;;;;5.67;2.73;;;12.30;99.90;;;;;;5014548;28;20234;-72
2023/01/06 08:22:47;;;;;;;5.13;3.13;;;12.30;99.90;;;;;;5012472;28;20410;-80
2023/01/06 08:25:12;;;;;;;4.70;3.20;;;12.30;99.90;;;;;;5010713;28;20470;-77
2023/01/06 08:27:38;;;;;;;4.60;2.60;;;12.40;99.90;;;;;;5014121;28;20245;-74
2023/01/06 08:30:03;;;;;;;4.27;2.47;;;12.30;99.90;;;;;;5013957;28;20208;-76
2023/01/06 08:32:29;;;;;;;3.27;2.50;;;12.30;99.90;;;;;;5014017;28;20896;-72
2023/01/06 08:34:55;;;;;;;2.63;2.20;;;12.30;99.90;;;;;;5017248;28;20435;-72
2023/01/06 08:37:20;;;;;;;3.90;2.00;;;12.30;99.90;;;;;;5021271;28;20654;-73
2023/01/06 08:39:46;;;;;;;2.30;1.50;;;12.40;99.90;;;;;;5016132;28;20638;-72
2023/01/06 08:42:12;;;;;;;3.07;2.10;;;12.40;99.90;;;;;;5015937;28;20176;-72
2023/01/06 08:44:37;;;;;;;3.23;2.00;;;12.40;99.90;;;;;;5016687;28;20185;-72
2023/01/06 08:47:03;;;;;;;3.17;2.00;;;12.40;99.90;;;;;;5009790;28;20208;-71
2023/01/06 08:49:29;;;;;;;1.90;1.50;;;12.40;99.90;;;;;;5019850;28;20188;-70
2023/01/06 08:51:55;;;;;;;2.53;1.40;;;12.50;99.90;;;;;;5005538;28;20528;-72
2023/01/06 08:54:21;;;;;;;2.07;1.40;;;12.40;99.90;;;;;;5017380;28;20263;-72
2023/01/06 08:56:46;;;;;;;3.03;1.30;;;12.50;99.90;;;;;;5012946;28;20204;-69
2023/01/06 08:59:15;;;;;;;1.90;1.20;;;12.50;99.90;;;;;;5013967;28;20812;-70
2023/01/06 09:01:41;;;;;;;1.90;1.30;;;12.50;99.90;;;;;;5009441;28;20301;-70
2023/01/06 09:04:08;;;;;;;1.93;1.30;;;12.50;99.90;;;;;;5011761;28;20435;-70
2023/01/06 09:06:35;;;;;;;2.50;1.47;;;12.50;99.90;;;;;;5015976;28;21801;-70
2023/01/06 09:09:03;;;;;;;3.37;1.30;;;12.50;99.90;;;;;;5012500;28;20497;-72
2023/01/06 09:11:29;;;;;;;2.57;1.50;;;12.60;99.90;;;;;;5009829;28;20447;-70
2023/01/06 09:13:54;;;;;;;2.03;1.20;;;12.70;99.90;;;;;;5012614;28;20435;-71
2023/01/06 09:16:20;;;;;;;1.70;1.10;;;12.60;99.90;;;;;;5017267;28;20287;-72
2023/01/06 09:18:48;;;;;;;1.73;1.10;;;12.70;99.90;;;;;;5011652;28;20189;-73
2023/01/06 09:21:16;;;;;;;3.17;1.30;;;12.70;99.90;;;;;;5028825;28;20442;-70
2023/01/06 09:23:41;;;;;;;1.77;1.10;;;12.70;99.90;;;;;;5013151;28;20948;-69
2023/01/06 09:26:08;;;;;;;4.30;1.20;;;12.70;99.90;;;;;;5016061;28;20493;-70
2023/01/06 09:28:33;;;;;;;2.53;1.00;;;12.80;99.90;;;;;;5010864;28;20180;-70
2023/01/06 09:31:00;;;;;;;2.20;1.40;;;12.80;99.90;;;;;;5013607;28;20882;-72
2023/01/06 09:33:25;;;;;;;2.20;1.30;;;12.80;99.90;;;;;;5013035;28;20185;-71
2023/01/06 09:35:51;;;;;;;1.83;1.10;;;12.80;99.90;;;;;;5013617;28;20532;-71
2023/01/06 09:38:16;;;;;;;1.50;1.10;;;12.80;99.90;;;;;;5014080;28;20641;-73
2023/01/06 09:41:00;;;;;;;2.40;1.10;;;12.80;99.90;;;;;;5016785;28;20188;-75
2023/01/06 09:43:44;;;;;;;1.80;1.20;;;12.80;99.90;;;;;;5014075;28;20272;-70
2023/01/06 09:46:13;;;;;;;1.60;1.30;;;12.80;99.90;;;;;;5012747;28;20512;-75
2023/01/06 09:48:45;;;;;;;5.33;1.30;;;12.90;99.90;;;;;;5010230;28;20446;-73
2023/01/06 09:51:17;;;;;;;4.00;1.60;;;12.90;99.90;;;;;;5011206;28;20447;-72
2023/01/06 09:53:49;;;;;;;2.47;1.47;;;12.90;99.90;;;;;;5010536;28;20500;-75
2023/01/06 09:56:16;;;;;;;2.93;1.70;;;12.90;99.90;;;;;;5012615;28;20838;-76
2023/01/06 09:59:11;;;;;;;3.80;1.23;;;12.90;99.90;;;;;;5013803;28;20932;-77
2023/01/06 10:01:44;;;;;;;1.77;1.37;;;12.80;99.90;;;;;;5009836;28;21135;-74
2023/01/06 10:04:17;;;;;;;2.20;1.53;;;12.90;99.90;;;;;;5011866;28;20795;-78
2023/01/06 10:06:50;;;;;;;4.23;1.47;;;13.00;99.90;;;;;;5014929;28;20842;-80
2023/01/06 10:09:34;;;;;;;2.50;1.50;;;12.90;99.90;;;;;;5014283;28;21481;-84
2023/01/06 10:12:22;;;;;;;2.40;1.30;;;12.90;99.90;;;;;;5014142;28;20488;-74
2023/01/06 10:15:21;;;;;;;1.60;1.20;;;12.90;99.90;;;;;;5008603;28;20435;-74
2023/01/06 10:17:59;;;;;;;3.20;1.40;;;13.00;99.90;;;;;;5007634;28;20481;-72
2023/01/06 10:20:52;;;;;;;2.20;1.30;;;12.90;99.90;;;;;;5010733;28;20859;-73
2023/01/06 10:23:35;;;;;;;1.90;1.30;;;13.00;99.90;;;;;;5009060;28;20495;-73
2023/01/06 10:26:13;;;;;;;1.63;1.10;;;12.90;99.90;;;;;;5010398;28;20611;-73
2023/01/06 10:28:46;;;;;;;2.57;1.50;;;13.00;99.90;;;;;;5005926;28;20455;-70
2023/01/06 10:31:18;;;;;;;1.80;1.27;;;12.90;99.90;;;;;;5010795;28;21165;-71
2023/01/06 10:33:55;;;;;;;1.60;1.20;;;12.90;99.90;;;;;;5011519;28;20750;-72
2023/01/06 10:36:36;;;;;;;1.93;1.30;;;12.90;99.90;;;;;;5010804;28;20451;-70
2023/01/06 10:39:05;;;;;;;2.63;1.30;;;13.00;99.90;;;;;;5009726;28;20923;-68
2023/01/06 10:41:55;;;;;;;2.17;1.10;;;13.10;99.90;;;;;;5012751;28;20444;-68
2023/01/06 10:44:21;;;;;;;3.63;1.30;;;13.10;99.90;;;;;;5007154;28;20446;-68
2023/01/06 10:46:48;;;;;;;2.03;1.30;;;13.10;99.90;;;;;;5008347;28;20906;-71
2023/01/06 10:49:18;;;;;;;4.03;1.60;;;13.10;99.90;;;;;;5011579;28;20183;-72
2023/01/06 10:51:54;;;;;;;1.87;1.23;;;13.20;99.90;;;;;;5008870;28;20451;-72
2023/01/06 10:54:26;;;;;;;1.50;1.00;;;13.20;99.90;;;;;;5009667;28;20427;-75
2023/01/06 10:57:00;;;;;;;2.17;1.30;;;13.20;99.90;;;;;;5008630;28;20589;-75
2023/01/06 10:59:26;;;;;;;1.53;1.07;;;13.20;99.90;;;;;;5010712;28;20431;-77
2023/01/06 11:01:55;;;;;;;1.90;1.40;;;13.20;99.90;;;;;;5009337;28;20443;-77
2023/01/06 11:04:21;;;;;;;2.97;1.63;;;13.10;99.90;;;;;;5012540;28;20189;-77
2023/01/06 11:06:53;;;;;;;2.90;1.40;;;13.20;99.90;;;;;;5006901;28;20550;-77
2023/01/06 11:09:32;;;;;;;2.93;1.40;;;13.30;99.90;;;;;;5012680;28;20435;-78
2023/01/06 11:12:02;;;;;;;3.37;1.80;;;13.20;99.90;;;;;;5009388;28;22134;-80
2023/01/06 11:14:31;;;;;;;2.13;1.50;;;13.20;99.90;;;;;;5011364;28;20433;-80
2023/01/06 11:16:59;;;;;;;1.90;1.30;;;13.30;99.90;;;;;;5011794;28;20500;-80
2023/01/06 11:20:09;;;;;;;2.43;1.20;;;13.30;99.90;;;;;;5006970;28;20544;-79
2023/01/06 11:22:42;;;;;;;2.47;1.37;;;13.40;99.90;;;;;;5007383;28;20508;-80
2023/01/06 11:25:20;;;;;;;1.63;1.20;;;13.40;99.90;;;;;;5013721;28;20529;-81
2023/01/06 11:28:08;;;;;;;1.80;1.30;;;13.40;99.90;;;;;;5007055;28;20430;-73
2023/01/06 11:30:41;;;;;;;5.73;1.67;;;13.30;99.90;;;;;;5006191;28;20435;-74
2023/01/06 11:33:22;;;;;;;2.03;1.43;;;13.30;99.90;;;;;;5008816;28;20443;-74
2023/01/06 11:35:48;;;;;;;1.83;1.20;;;13.30;99.90;;;;;;5006298;28;20718;-73
2023/01/06 11:38:16;;;;;;;2.30;1.37;;;13.30;99.90;;;;;;5016164;28;20442;-76
2023/01/06 11:40:46;;;;;;;2.03;1.43;;;13.30;99.90;;;;;;5011589;28;20439;-78
2023/01/06 11:43:15;;;;;;;1.90;1.30;;;13.30;99.90;;;;;;5013591;28;20812;-81
2023/01/06 11:46:03;;;;;;;2.03;1.33;;;13.30;99.90;;;;;;5016230;28;20470;-76
2023/01/06 11:48:50;;;;;;;2.33;1.50;;;13.30;99.90;;;;;;5010527;28;20431;-76
2023/01/06 11:51:31;;;;;;;2.60;1.63;;;13.50;99.90;;;;;;5017472;28;20986;-77
2023/01/06 11:53:56;;;;;;;2.20;1.20;;;13.60;99.90;;;;;;5014375;28;20451;-74
2023/01/06 11:56:23;;;;;;;2.47;1.40;;;13.70;99.90;;;;;;5013115;28;20919;-74
2023/01/06 11:59:09;;;;;;;1.80;1.30;;;13.70;99.90;;;;;;5013295;28;20188;-74
2023/01/06 12:01:40;;;;;;;1.60;1.20;;;13.60;99.90;;;;;;5015516;28;20482;-77
2023/01/06 12:04:27;;;;;;;2.20;1.40;;;13.50;99.90;;;;;;5013119;28;20541;-72
2023/01/06 12:06:58;;;;;;;3.13;1.77;;;13.60;99.90;;;;;;5009622;28;20487;-71
2023/01/06 12:09:30;;;;;;;1.80;1.27;;;13.60;99.90;;;;;;5010364;28;20450;-74
2023/01/06 12:12:02;;;;;;;1.90;1.40;;;13.70;99.90;;;;;;5011236;28;20466;-72
2023/01/06 12:14:34;;;;;;;1.90;1.30;;;13.70;99.90;;;;;;5008755;28;20553;-77
2023/01/06 12:17:35;;;;;;;1.50;1.20;;;13.60;99.90;;;;;;5009017;28;20802;-73
2023/01/06 12:20:15;;;;;;;2.73;1.40;;;13.80;99.90;;;;;;5012626;28;20470;-74
2023/01/06 12:22:45;;;;;;;2.00;1.23;;;13.70;99.90;;;;;;5017129;28;20438;-78
2023/01/06 12:25:24;;;;;;;2.00;1.30;;;13.50;99.90;;;;;;5014309;28;20430;-77
2023/01/06 12:27:52;;;;;;;1.60;1.20;;;13.50;99.90;;;;;;5013453;28;20865;-80
2023/01/06 12:30:53;;;;;;;1.80;1.10;;;13.50;99.90;;;;;;5011226;28;20435;-79
2023/01/06 12:33:34;;;;;;;2.43;1.30;;;13.50;99.90;;;;;;5009417;28;20450;-72
2023/01/06 12:36:03;;;;;;;1.80;1.40;;;13.50;99.90;;;;;;5010765;28;21199;-81
2023/01/06 12:38:56;;;;;;;1.70;1.10;;;13.60;99.90;;;;;;5017003;28;20440;-76
2023/01/06 12:41:45;;;;;;;2.43;1.20;;;13.70;99.90;;;;;;5010334;28;20456;-76
2023/01/06 12:44:48;;;;;;;3.00;1.47;;;13.80;99.90;;;;;;5011801;28;20423;-77
2023/01/06 12:47:36;;;;;;;3.27;1.40;;;13.80;99.90;;;;;;5012777;28;20557;-76
2023/01/06 12:50:28;;;;;;;2.53;1.30;;;13.70;99.90;;;;;;5014798;28;20425;-77
2023/01/06 12:53:02;;;;;;;2.00;1.50;;;13.80;99.90;;;;;;5014018;28;20439;-77
2023/01/06 12:55:43;;;;;;;1.93;1.20;;;13.60;99.90;;;;;;5014904;28;20439;-77
2023/01/06 12:58:25;;;;;;;1.73;1.27;;;13.40;99.90;;;;;;5013567;28;20829;-77
2023/01/06 13:01:02;;;;;;;2.10;1.40;;;13.30;99.90;;;;;;5017943;28;20549;-75
2023/01/06 13:03:55;;;;;;;2.60;1.40;;;13.20;99.90;;;;;;5015722;28;20943;-74
2023/01/06 13:06:33;;;;;;;2.10;1.40;;;13.30;99.90;;;;;;5012729;28;20481;-72
2023/01/06 13:09:24;;;;;;;2.00;1.33;;;13.40;99.90;;;;;;5010764;28;20454;-73
2023/01/06 13:12:08;;;;;;;2.47;1.27;;;13.40;99.90;;;;;;5005720;28;20435;-74
2023/01/06 13:14:41;;;;;;;1.90;1.30;;;13.40;99.90;;;;;;5015532;28;21056;-72
2023/01/06 13:17:40;;;;;;;2.07;1.43;;;13.30;99.90;;;;;;5014040;28;20540;-74